Time;durP1;ratioP1;P1;durP2;ratioP2;P2;SDS_P1;SDS_P2;PMS_P1;PMS_P2;Temp;Humidity;BMP_temperature;BMP_pressure;BME280_temperature;BME280_humidity;BME280_pressure;Samples;Min_cycle;Max_cycle;Signal;HPM_P1;HPM_P2
2022/11/01 00:02:17;;;;;;;5.60;3.15;;;;;;;16.82;40.00;100694.88;4911369;29;20044;-70
2022/11/01 00:04:44;;;;;;;5.05;2.95;;;;;;;16.82;40.37;100694.88;4911667;29;20046;-70
2022/11/01 00:07:12;;;;;;;7.07;3.78;;;;;;;16.83;40.07;100682.75;4910151;29;20044;-70
2022/11/01 00:09:40;;;;;;;5.00;3.05;;;;;;;16.82;40.19;100686.59;4911785;29;20044;-71
2022/11/01 00:12:09;;;;;;;5.78;3.30;;;;;;;16.82;40.50;100681.91;4910021;29;20528;-71
2022/11/01 00:14:37;;;;;;;6.20;3.92;;;;;;;16.80;40.55;100678.47;4910198;29;20056;-69
2022/11/01 00:17:05;;;;;;;9.20;3.90;;;;;;;16.79;40.61;100664.81;4909463;29;20104;-69
2022/11/01 00:19:33;;;;;;;5.88;3.13;;;;;;;16.78;41.13;100669.47;4903712;29;20405;-70
2022/11/01 00:22:01;;;;;;;5.55;3.08;;;;;;;16.76;40.77;100668.78;4907061;29;20053;-70
2022/11/01 00:24:30;;;;;;;5.05;3.33;;;;;;;16.73;40.80;100671.06;4906687;29;20053;-70
2022/11/01 00:26:58;;;;;;;5.53;3.40;;;;;;;16.71;40.80;100657.44;4904003;29;20513;-70
2022/11/01 00:29:27;;;;;;;7.47;3.65;;;;;;;16.70;41.47;100663.13;4913065;29;20047;-70
2022/11/01 00:31:55;;;;;;;5.43;3.35;;;;;;;16.65;40.90;100655.41;4911634;29;20104;-70
2022/11/01 00:34:23;;;;;;;5.35;3.30;;;;;;;16.62;41.16;100653.84;4911631;29;20406;-71
2022/11/01 00:36:51;;;;;;;7.90;3.70;;;;;;;16.60;41.50;100655.03;4909172;29;20048;-71
2022/11/01 00:39:19;;;;;;;5.90;3.13;;;;;;;16.58;41.35;100646.06;4907467;29;20051;-71
2022/11/01 00:41:47;;;;;;;6.03;3.22;;;;;;;16.56;41.96;100640.75;4911258;29;20052;-69
2022/11/01 00:44:14;;;;;;;6.05;3.28;;;;;;;16.54;41.65;100642.81;4905691;29;20040;-69
2022/11/01 00:46:43;;;;;;;7.18;3.58;;;;;;;16.54;41.89;100625.38;4911732;29;20420;-70
2022/11/01 00:49:11;;;;;;;6.72;3.35;;;;;;;16.50;42.06;100633.16;4913898;29;20064;-70
2022/11/01 00:51:39;;;;;;;5.88;3.25;;;;;;;16.49;42.17;100630.59;4911569;29;20489;-69
2022/11/01 00:54:07;;;;;;;6.47;3.38;;;;;;;16.48;42.32;100637.16;4908807;29;20055;-69
2022/11/01 00:56:35;;;;;;;6.55;3.35;;;;;;;16.44;41.86;100638.53;4906181;29;20052;-70
2022/11/01 00:59:03;;;;;;;5.00;3.30;;;;;;;16.43;41.79;100636.81;4907511;29;20048;-70
2022/11/01 01:01:32;;;;;;;6.43;3.28;;;;;;;;;;4904477;29;20068;-70
2022/11/01 01:04:01;;;;;;;6.93;3.60;;;;;;;16.40;41.90;100629.75;4912805;29;20064;-70
2022/11/01 01:06:29;;;;;;;7.05;3.55;;;;;;;16.38;42.29;100633.72;4909347;29;20044;-70
2022/11/01 01:08:59;;;;;;;4.90;3.13;;;;;;;16.38;42.37;100631.84;4910157;29;20044;-69
2022/11/01 01:11:27;;;;;;;7.00;3.17;;;;;;;16.34;42.09;100619.41;4911241;29;20048;-70
2022/11/01 01:13:54;;;;;;;6.32;3.40;;;;;;;16.32;42.12;100632.53;4907568;29;20494;-70
2022/11/01 01:16:22;;;;;;;5.72;3.35;;;;;;;16.30;42.31;100636.50;4908136;29;20518;-71
2022/11/01 01:18:51;;;;;;;6.75;3.45;;;;;;;16.29;42.74;100640.31;4908126;29;20474;-70
2022/11/01 01:21:20;;;;;;;6.57;3.70;;;;;;;16.29;42.84;100640.31;4909646;29;20108;-71
2022/11/01 01:23:50;;;;;;;7.30;3.42;;;;;;;16.25;42.98;100646.19;4908900;29;20048;-70
2022/11/01 01:26:18;;;;;;;5.80;3.45;;;;;;;16.24;42.86;100632.56;4908844;29;20819;-69
2022/11/01 01:28:45;;;;;;;6.13;3.13;;;;;;;16.22;43.05;100623.59;4912113;29;20407;-70
2022/11/01 01:31:14;;;;;;;4.75;3.25;;;;;;;16.22;42.92;100620.84;4902898;29;20779;-69
2022/11/01 01:33:42;;;;;;;7.60;3.13;;;;;;;16.21;42.66;100630.16;4905852;29;20446;-70
2022/11/01 01:36:10;;;;;;;6.00;3.00;;;;;;;16.21;43.18;100619.09;4910056;29;20047;-70
2022/11/01 01:38:39;;;;;;;5.10;3.20;;;;;;;16.22;43.36;100632.75;4911020;29;20052;-70
2022/11/01 01:43:52;;;;;;;6.97;3.25;;;;;;;16.20;42.80;100639.47;4903577;29;20144;-70
2022/11/01 01:46:20;;;;;;;5.97;3.13;;;;;;;16.21;43.29;100630.16;4908108;29;20111;-70
2022/11/01 01:48:53;;;;;;;7.18;3.40;;;;;;;16.24;43.16;100622.41;4911831;29;20048;-70
2022/11/01 01:51:25;;;;;;;4.85;2.70;;;;;;;16.24;43.55;100633.44;4910837;29;20048;-70
2022/11/01 01:53:57;;;;;;;4.57;3.00;;;;;;;16.23;43.02;100625.31;4911182;29;20060;-71
2022/11/01 01:56:30;;;;;;;6.65;3.38;;;;;;;16.26;43.13;100628.56;4915426;29;20572;-69
2022/11/01 01:59:03;;;;;;;5.22;3.00;;;;;;;16.26;43.01;100625.81;4911601;29;20670;-71
2022/11/01 02:01:34;;;;;;;6.32;3.03;;;;;;;16.27;43.20;100622.03;4910705;29;20100;-71
2022/11/01 02:04:03;;;;;;;6.43;2.95;;;;;;;16.27;43.08;100616.50;4908475;29;20063;-71
2022/11/01 02:06:33;;;;;;;5.55;3.05;;;;;;;16.31;43.08;100624.44;4908001;29;20099;-70
2022/11/01 02:09:05;;;;;;;7.20;3.60;;;;;;;16.32;43.64;100617.88;4910528;29;20814;-71
2022/11/01 02:11:32;;;;;;;4.90;3.22;;;;;;;16.30;43.55;100619.94;4909403;29;20048;-70
2022/11/01 02:14:01;;;;;;;5.93;3.13;;;;;;;16.33;43.11;100622.38;4912102;29;20522;-70
2022/11/01 02:16:52;;;;;;;7.30;3.25;;;;;;;16.34;43.85;100619.41;4910582;29;20044;-72
2022/11/01 02:19:51;;;;;;;5.80;2.88;;;;;;;16.36;43.71;100622.84;4915147;29;20449;-71
2022/11/01 02:22:30;;;;;;;4.97;3.17;;;;;;;16.38;43.46;100617.16;4901241;29;20075;-71
2022/11/01 02:25:24;;;;;;;5.47;3.05;;;;;;;16.37;43.92;100619.06;4911754;29;20051;-71
2022/11/01 02:27:59;;;;;;;5.57;2.80;;;;;;;;;;4906346;29;20066;-70
2022/11/01 02:30:38;;;;;;;6.10;2.90;;;;;;;16.43;43.32;100610.03;4905741;29;20037;-70
2022/11/01 02:33:16;;;;;;;8.18;3.03;;;;;;;16.44;43.68;100617.31;4910580;29;20078;-71
2022/11/01 02:35:55;;;;;;;6.05;2.95;;;;;;;16.46;43.85;100614.38;4898300;29;20047;-69
2022/11/01 02:38:28;;;;;;;5.15;2.97;;;;;;;16.46;43.29;100618.00;4898093;29;20055;-70
2022/11/01 02:41:07;;;;;;;5.95;2.92;;;;;;;16.46;43.60;100617.13;4905577;29;20050;-71
2022/11/01 02:43:44;;;;;;;5.28;3.00;;;;;;;16.46;43.82;100612.47;4908013;29;20071;-71
2022/11/01 02:48:59;;;;;;;4.38;2.75;;;;;;;16.46;43.30;100611.59;4908375;29;20071;-72
2022/11/01 02:51:28;;;;;;;4.22;2.70;;;;;;;16.46;43.68;100601.41;4908389;29;20100;-70
2022/11/01 02:54:00;;;;;;;5.38;3.05;;;;;;;16.45;43.69;100601.59;4906946;29;20099;-71
2022/11/01 02:56:28;;;;;;;4.93;2.88;;;;;;;16.45;43.25;100596.94;4909790;29;20043;-71
2022/11/01 02:58:57;;;;;;;5.15;3.33;;;;;;;16.45;43.47;100599.69;4909932;29;20150;-71
2022/11/01 03:01:29;;;;;;;5.95;2.85;;;;;;;16.47;43.88;100597.63;4910435;29;20130;-71
2022/11/01 03:04:00;;;;;;;6.30;2.95;;;;;;;16.46;43.73;100592.25;4905416;29;20167;-70
2022/11/01 03:06:34;;;;;;;5.15;2.85;;;;;;;16.47;44.06;100603.16;4910075;29;20044;-71
2022/11/01 03:09:07;;;;;;;5.40;2.90;;;;;;;16.46;44.00;100600.56;4912284;29;20466;-71
2022/11/01 03:11:44;;;;;;;5.03;2.80;;;;;;;16.45;44.19;100609.88;4915806;29;20517;-69
2022/11/01 03:14:20;;;;;;;5.07;2.78;;;;;;;16.44;43.95;100603.50;4914446;29;20444;-69
2022/11/01 03:16:55;;;;;;;5.63;2.65;;;;;;;16.45;44.29;100607.13;4906580;29;20044;-70
2022/11/01 03:19:37;;;;;;;4.75;2.88;;;;;;;16.44;44.32;100619.19;4909472;29;20056;-72
2022/11/01 03:22:10;;;;;;;4.90;2.95;;;;;;;16.43;43.68;100615.56;4904871;29;20097;-71
2022/11/01 03:24:45;;;;;;;5.50;2.50;;;;;;;16.44;43.93;100627.47;4902372;29;20584;-70
2022/11/01 03:27:19;;;;;;;6.53;2.83;;;;;;;16.42;43.75;100627.66;4907985;29;20133;-72
2022/11/01 03:29:55;;;;;;;6.78;2.92;;;;;;;16.43;44.38;100634.03;4911423;29;20036;-72
2022/11/01 03:32:24;;;;;;;5.32;2.45;;;;;;;;;;4907229;29;20056;-71
2022/11/01 03:34:55;;;;;;;4.28;2.55;;;;;;;16.41;43.93;100628.72;4925615;29;20048;-71
2022/11/01 03:37:24;;;;;;;5.03;2.42;;;;;;;16.41;44.50;100633.38;4907336;28;20151;-71
2022/11/01 03:39:54;;;;;;;4.60;2.50;;;;;;;16.42;44.59;100638.69;4909846;29;20037;-72
2022/11/01 03:42:23;;;;;;;4.85;2.40;;;;;;;16.42;44.06;100630.41;4909721;29;20723;-71
2022/11/01 03:44:58;;;;;;;5.03;2.60;;;;;;;16.43;44.89;100645.97;4906097;29;20458;-70
2022/11/01 03:47:26;;;;;;;5.60;2.53;;;;;;;16.41;44.68;100649.97;4905178;29;20136;-71
2022/11/01 03:50:18;;;;;;;5.20;2.42;;;;;;;16.44;44.89;100646.81;4906771;29;20453;-71
2022/11/01 03:52:47;;;;;;;3.95;2.33;;;;;;;16.39;44.32;100649.25;4906615;29;20058;-71
2022/11/01 03:55:18;;;;;;;4.70;2.55;;;;;;;16.43;44.71;100657.00;4910415;29;20044;-70
2022/11/01 03:57:46;;;;;;;4.43;2.28;;;;;;;;;;4911685;29;20048;-71
2022/11/01 04:00:16;;;;;;;5.32;2.20;;;;;;;16.44;44.83;100669.78;4914171;29;20131;-72
2022/11/01 04:02:44;;;;;;;5.32;2.42;;;;;;;16.44;44.96;100679.97;4906740;29;20218;-71
2022/11/01 04:05:12;;;;;;;3.30;2.13;;;;;;;16.44;44.77;100667.03;4904499;29;20048;-71
2022/11/01 04:07:42;;;;;;;4.20;2.13;;;;;;;16.47;45.09;100677.72;4911204;28;20387;-71
2022/11/01 04:10:10;;;;;;;3.83;2.13;;;;;;;16.45;45.18;100668.75;4914784;29;20048;-70
2022/11/01 04:12:39;;;;;;;4.55;2.22;;;;;;;16.47;45.04;100674.97;4913123;29;20071;-71
2022/11/01 04:20:48;;;;;;;4.05;1.83;;;;;;;16.46;45.06;100694.47;4906018;29;20041;-70
2022/11/01 04:23:18;;;;;;;3.33;2.10;;;;;;;16.51;45.22;100708.59;4910504;29;20053;-70
2022/11/01 04:25:46;;;;;;;3.75;1.88;;;;;;;16.50;44.80;100704.97;4911414;29;20036;-72
2022/11/01 04:28:14;;;;;;;3.60;2.00;;;;;;;16.50;44.79;100699.44;4911438;29;20104;-69
2022/11/01 04:30:42;;;;;;;5.25;2.40;;;;;;;16.51;44.83;100703.94;4908796;29;20048;-73
2022/11/01 04:33:10;;;;;;;3.17;1.85;;;;;;;16.53;44.79;100714.81;4907877;29;20052;-71
2022/11/01 04:35:38;;;;;;;4.57;2.20;;;;;;;16.54;45.01;100725.69;4911383;29;20050;-71
2022/11/01 04:38:06;;;;;;;3.58;2.05;;;;;;;16.55;45.42;100727.44;4909212;29;20462;-71
2022/11/01 04:40:35;;;;;;;4.38;2.13;;;;;;;16.58;45.12;100729.81;4912506;29;21411;-69
2022/11/01 04:43:04;;;;;;;4.63;2.13;;;;;;;16.56;45.26;100733.81;4913244;29;20116;-70
2022/11/01 04:45:32;;;;;;;3.20;1.90;;;;;;;16.58;45.47;100738.09;4912931;29;20460;-68
2022/11/01 04:48:04;;;;;;;3.30;1.90;;;;;;;16.60;45.53;100730.50;4911877;29;20482;-71
2022/11/01 04:50:32;;;;;;;3.97;1.95;;;;;;;16.58;45.06;100732.59;4911407;29;20044;-72
2022/11/01 04:53:01;;;;;;;3.80;2.40;;;;;;;16.60;45.00;100749.00;4908956;29;20048;-72
2022/11/01 04:55:30;;;;;;;4.00;2.08;;;;;;;16.62;45.42;100745.03;4907586;29;20056;-72
2022/11/01 04:57:59;;;;;;;3.70;2.10;;;;;;;16.64;45.50;100754.00;4910899;29;20052;-71
2022/11/01 05:00:27;;;;;;;4.68;2.08;;;;;;;16.63;45.03;100751.41;4911494;29;20040;-72
2022/11/01 05:03:01;;;;;;;3.63;2.00;;;;;;;16.67;45.31;100755.53;4910507;29;20379;-71
2022/11/01 05:05:29;;;;;;;4.78;2.20;;;;;;;16.64;44.95;100759.53;4910326;29;20052;-70
2022/11/01 05:08:01;;;;;;;3.92;1.88;;;;;;;16.68;45.23;100760.03;4908717;29;20116;-71
2022/11/01 05:10:36;;;;;;;3.75;1.70;;;;;;;16.68;45.10;100768.31;4908689;29;20099;-70
2022/11/01 05:13:06;;;;;;;4.15;1.90;;;;;;;16.70;45.47;100768.13;4906017;28;20770;-71
2022/11/01 05:15:34;;;;;;;4.95;2.08;;;;;;;16.70;45.55;100773.66;4911711;29;20044;-70
2022/11/01 05:18:10;;;;;;;4.38;2.20;;;;;;;16.68;45.35;100781.25;4906386;29;20058;-70
2022/11/01 05:20:38;;;;;;;4.43;1.90;;;;;;;16.69;45.31;100780.22;4910003;29;20047;-70
2022/11/01 05:23:06;;;;;;;4.22;1.80;;;;;;;16.70;45.17;100791.13;4910685;29;20044;-70
2022/11/01 05:25:34;;;;;;;4.07;1.77;;;;;;;16.71;45.00;100786.44;4911763;29;20071;-71
2022/11/01 05:28:09;;;;;;;4.20;2.22;;;;;;;16.73;45.24;100796.31;4910976;29;20052;-71
2022/11/01 05:30:37;;;;;;;6.28;2.38;;;;;;;16.71;44.85;100789.22;4907835;29;20051;-70
2022/11/01 05:33:06;;;;;;;4.32;1.92;;;;;;;16.73;45.02;100800.97;4912255;29;20582;-72
2022/11/01 05:35:35;;;;;;;3.70;1.83;;;;;;;16.72;45.08;100802.84;4911497;29;20047;-71
2022/11/01 05:38:04;;;;;;;4.63;2.20;;;;;;;16.72;44.80;100815.81;4912138;28;20044;-71
2022/11/01 05:40:32;;;;;;;4.10;2.20;;;;;;;16.71;45.01;100812.19;4909762;29;20119;-72
2022/11/01 05:43:00;;;;;;;3.58;1.95;;;;;;;16.71;44.86;100819.63;4909717;29;20048;-71
2022/11/01 05:45:30;;;;;;;4.03;1.85;;;;;;;16.74;44.76;100822.03;4910209;29;20051;-70
2022/11/01 05:48:02;;;;;;;3.63;1.92;;;;;;;16.74;44.71;100822.03;4901913;29;20044;-71
2022/11/01 05:50:30;;;;;;;3.85;1.90;;;;;;;16.69;45.02;100821.69;4912915;29;20040;-71
2022/11/01 05:53:07;;;;;;;3.65;2.00;;;;;;;16.73;44.95;100828.59;4911899;29;20047;-72
2022/11/01 05:55:34;;;;;;;3.63;1.88;;;;;;;16.68;44.36;100828.25;4911916;29;20047;-70
2022/11/01 05:58:03;;;;;;;3.28;1.85;;;;;;;16.69;44.36;100829.97;4899351;29;20104;-72
2022/11/01 06:00:32;;;;;;;3.50;1.50;;;;;;;16.70;43.86;100840.00;4910732;29;20047;-72
2022/11/01 06:03:00;;;;;;;3.55;1.60;;;;;;;16.66;44.03;100841.41;4920321;29;20044;-71
2022/11/01 06:05:30;;;;;;;3.80;1.73;;;;;;;16.66;43.69;100849.69;4907229;29;20059;-71
2022/11/01 06:08:00;;;;;;;3.55;1.40;;;;;;;16.66;43.76;100856.03;4910086;29;20067;-70
2022/11/01 06:10:28;;;;;;;2.97;1.42;;;;;;;16.63;43.31;100854.50;4909539;29;20044;-70
2022/11/01 06:12:56;;;;;;;3.72;1.42;;;;;;;16.62;43.33;100869.34;4905865;29;20075;-70
2022/11/01 06:15:24;;;;;;;2.63;1.50;;;;;;;16.62;42.84;100879.53;4907017;29;20044;-71
2022/11/01 06:17:57;;;;;;;2.50;1.30;;;;;;;16.63;42.89;100892.34;4907032;29;20045;-70
2022/11/01 06:20:25;;;;;;;2.83;1.48;;;;;;;16.59;42.86;100902.84;4908776;29;20066;-68
2022/11/01 06:22:53;;;;;;;2.80;1.48;;;;;;;16.59;42.48;100918.56;4903983;29;20320;-69
2022/11/01 06:25:21;;;;;;;4.03;1.30;;;;;;;16.56;42.56;100925.31;4911742;29;20111;-69
2022/11/01 06:27:49;;;;;;;2.65;1.10;;;;;;;16.56;42.32;100927.22;4902899;29;20048;-69
2022/11/01 06:30:17;;;;;;;1.95;1.00;;;;;;;16.54;41.68;100924.63;4908088;29;20048;-68
2022/11/01 06:32:45;;;;;;;1.88;1.00;;;;;;;16.51;41.37;100952.59;4922883;29;20099;-70
2022/11/01 06:35:14;;;;;;;2.08;0.85;;;;;;;16.51;41.01;100951.72;4906782;29;20135;-72
2022/11/01 06:37:42;;;;;;;2.33;1.00;;;;;;;16.44;40.96;100957.06;4924666;29;20052;-70
2022/11/01 06:40:11;;;;;;;2.50;0.90;;;;;;;16.42;41.33;100959.13;4907871;29;20066;-70
2022/11/01 06:42:39;;;;;;;1.63;0.90;;;;;;;16.37;41.00;100975.34;4906929;29;20425;-70
2022/11/01 06:45:13;;;;;;;2.13;1.02;;;;;;;16.34;40.65;100978.44;4905652;29;20048;-71
2022/11/01 06:47:46;;;;;;;2.53;0.80;;;;;;;16.34;39.85;100983.97;4902037;29;20585;-70
2022/11/01 06:50:15;;;;;;;1.00;0.68;;;;;;;16.31;40.69;100980.69;4907128;29;20040;-70
2022/11/01 06:52:43;;;;;;;3.38;1.00;;;;;;;16.26;40.14;100993.09;4906505;28;20103;-70
2022/11/01 06:55:11;;;;;;;1.67;0.80;;;;;;;16.24;40.20;101011.75;4910752;29;20044;-69
2022/11/01 06:57:39;;;;;;;1.38;0.77;;;;;;;16.22;39.89;101010.19;4909315;29;20048;-70
2022/11/01 07:00:09;;;;;;;2.28;0.73;;;;;;;16.19;39.99;101027.94;4906245;29;20052;-70
2022/11/01 07:02:36;;;;;;;1.83;0.80;;;;;;;16.16;39.54;101027.41;4911281;28;20048;-70
2022/11/01 07:05:05;;;;;;;1.98;0.70;;;;;;;16.13;39.52;101028.59;4899153;29;20616;-70
2022/11/01 07:07:34;;;;;;;1.95;0.80;;;;;;;16.11;39.92;101036.16;4907948;28;20052;-70
2022/11/01 07:10:02;;;;;;;1.88;0.85;;;;;;;16.06;39.49;101043.22;4909445;29;21060;-70
2022/11/01 07:12:30;;;;;;;1.83;1.00;;;;;;;16.03;39.62;101049.94;4911940;29;20059;-70
2022/11/01 07:14:58;;;;;;;2.20;0.75;;;;;;;16.01;39.26;101052.00;4910618;29;20044;-71
2022/11/01 07:17:26;;;;;;;2.33;0.80;;;;;;;15.99;39.25;101055.97;4907993;29;20051;-69
2022/11/01 07:19:54;;;;;;;1.55;0.80;;;;;;;15.96;39.61;101053.53;4907161;29;20048;-71
2022/11/01 07:22:22;;;;;;;1.58;0.80;;;;;;;15.93;39.36;101056.59;4903793;29;20044;-72
2022/11/01 07:24:51;;;;;;;1.48;0.70;;;;;;;15.91;39.29;101067.84;4905145;29;20576;-71
2022/11/01 07:27:19;;;;;;;1.58;0.60;;;;;;;15.87;39.54;101077.47;4906150;29;20115;-72
2022/11/01 07:29:47;;;;;;;1.38;0.55;;;;;;;15.84;39.72;101080.53;4907656;29;20509;-70
2022/11/01 07:32:15;;;;;;;1.88;0.70;;;;;;;15.81;39.30;101090.03;4910492;29;20047;-69
2022/11/01 07:34:43;;;;;;;1.90;0.75;;;;;;;15.78;39.55;101083.94;4905837;29;20044;-71
2022/11/01 07:37:10;;;;;;;1.70;0.70;;;;;;;15.74;39.56;101080.66;4904930;29;20053;-71
2022/11/01 07:39:39;;;;;;;1.92;0.80;;;;;;;15.74;39.54;101088.06;4903564;29;20060;-70
2022/11/01 07:42:08;;;;;;;2.15;0.82;;;;;;;15.72;39.33;101101.16;4906917;29;20052;-70
2022/11/01 07:44:36;;;;;;;3.15;0.93;;;;;;;15.68;39.17;101102.50;4908058;29;20048;-71
2022/11/01 07:47:04;;;;;;;2.50;0.70;;;;;;;15.67;39.62;101107.16;4910899;29;20045;-71
2022/11/01 07:49:32;;;;;;;1.67;0.60;;;;;;;15.66;39.46;101110.09;4906112;29;20521;-71
2022/11/01 07:52:00;;;;;;;2.25;0.90;;;;;;;15.63;39.69;101105.75;4905371;29;20048;-71
2022/11/01 07:54:29;;;;;;;3.40;0.80;;;;;;;15.63;39.35;101113.16;4899136;29;20506;-71
2022/11/01 07:56:57;;;;;;;1.38;0.60;;;;;;;15.62;39.22;101109.53;4905180;29;20056;-71
2022/11/01 07:59:26;;;;;;;1.98;0.80;;;;;;;15.63;39.54;101118.69;4908721;29;20127;-71
2022/11/01 08:01:54;;;;;;;1.98;0.65;;;;;;;15.60;39.82;101119.88;4902769;29;20052;-71
2022/11/01 08:04:23;;;;;;;1.38;0.60;;;;;;;15.59;39.28;101120.88;4901359;29;20523;-71
2022/11/01 08:06:51;;;;;;;2.78;0.80;;;;;;;15.60;39.62;101121.75;4901969;28;20044;-71
2022/11/01 08:09:20;;;;;;;2.05;0.90;;;;;;;15.59;38.94;101131.91;4906654;29;20044;-71
2022/11/01 08:11:48;;;;;;;1.88;0.73;;;;;;;15.57;39.25;101145.03;4903083;29;20642;-71
2022/11/01 08:14:16;;;;;;;1.85;0.70;;;;;;;15.56;39.02;101146.06;4907639;29;20584;-71
2022/11/01 08:16:48;;;;;;;2.25;0.80;;;;;;;15.58;38.03;101137.63;4907619;29;20459;-70
2022/11/01 08:19:16;;;;;;;2.38;0.77;;;;;;;15.53;38.78;101146.38;4911190;29;20086;-69
2022/11/01 08:21:44;;;;;;;2.40;0.98;;;;;;;15.53;38.07;101149.13;4907180;29;20056;-70
2022/11/01 08:24:12;;;;;;;2.08;0.70;;;;;;;15.53;37.92;101151.88;4905777;29;20073;-70
2022/11/01 08:26:40;;;;;;;2.60;0.80;;;;;;;15.53;38.08;101154.63;4902251;29;20413;-69
2022/11/01 08:29:08;;;;;;;2.47;0.90;;;;;;;15.55;37.52;101160.00;4908915;29;21653;-69
2022/11/01 08:31:39;;;;;;;2.28;0.85;;;;;;;15.60;37.14;101155.72;4908764;29;20103;-70
2022/11/01 08:34:08;;;;;;;2.08;1.17;;;;;;;15.61;37.10;101160.22;4910440;29;20040;-71
2022/11/01 08:36:43;;;;;;;2.65;0.90;;;;;;;15.63;37.73;101160.06;4903735;29;20443;-70
2022/11/01 08:39:11;;;;;;;3.90;1.10;;;;;;;15.68;37.38;101171.47;4897850;29;20068;-70
2022/11/01 08:41:39;;;;;;;4.82;1.00;;;;;;;15.74;37.18;101165.34;4906352;29;20059;-70
2022/11/01 08:44:07;;;;;;;3.72;1.20;;;;;;;15.81;37.40;101180.22;4913082;29;20100;-70
2022/11/01 08:46:35;;;;;;;2.53;0.80;;;;;;;15.88;37.39;101184.94;4911801;29;20513;-71
2022/11/01 08:49:03;;;;;;;5.57;1.38;;;;;;;15.96;36.77;101178.59;4905862;29;20052;-71
2022/11/01 08:51:32;;;;;;;3.22;1.00;;;;;;;16.05;36.55;101183.16;4908064;29;20051;-70
2022/11/01 08:54:00;;;;;;;3.47;1.08;;;;;;;16.14;36.83;101181.31;4911950;29;20051;-71
2022/11/01 08:56:28;;;;;;;2.53;0.88;;;;;;;16.23;37.04;101192.28;4911274;29;20044;-71
2022/11/01 08:58:56;;;;;;;3.83;0.90;;;;;;;16.33;36.82;101183.03;4912031;29;20043;-72
2022/11/01 09:01:25;;;;;;;3.30;1.10;;;;;;;16.44;36.15;101183.59;4908708;29;22311;-70
2022/11/01 09:03:55;;;;;;;2.70;0.90;;;;;;;16.55;36.53;101196.25;4917965;29;20055;-71
2022/11/01 09:06:24;;;;;;;3.33;0.95;;;;;;;16.64;36.54;101193.38;4905285;29;20123;-71
2022/11/01 09:08:53;;;;;;;3.58;1.10;;;;;;;16.76;35.92;101204.97;4910584;29;20044;-71
2022/11/01 09:11:22;;;;;;;3.35;1.30;;;;;;;16.84;36.21;101204.13;4904987;29;20045;-71
2022/11/01 09:13:50;;;;;;;4.35;1.05;;;;;;;16.93;36.10;101197.63;4911454;29;20036;-71
2022/11/01 09:16:19;;;;;;;2.33;0.85;;;;;;;17.00;35.67;101209.75;4906540;29;20103;-71
2022/11/01 09:18:47;;;;;;;3.33;0.93;;;;;;;17.10;35.42;101212.38;4904677;29;20036;-70
2022/11/01 09:21:15;;;;;;;3.20;0.95;;;;;;;17.18;34.92;101213.28;4907143;29;20048;-70
2022/11/01 09:23:44;;;;;;;2.45;1.13;;;;;;;17.26;36.17;101212.44;4918726;29;20064;-62
2022/11/01 09:26:14;;;;;;;3.50;1.10;;;;;;;17.35;36.29;101222.47;4910689;29;20079;-62
2022/11/01 09:28:42;;;;;;;4.80;1.15;;;;;;;17.44;35.83;101227.00;4904462;29;20072;-61
2022/11/01 09:31:12;;;;;;;4.03;0.95;;;;;;;17.54;35.79;101227.72;4909784;29;20055;-61
2022/11/01 09:33:48;;;;;;;2.95;0.90;;;;;;;17.61;36.02;101219.59;4909102;29;20104;-62
2022/11/01 09:36:16;;;;;;;2.55;0.90;;;;;;;17.69;35.90;101214.91;4910759;28;20044;-61
2022/11/01 09:38:43;;;;;;;3.67;1.30;;;;;;;17.80;35.46;101222.06;4901887;29;20056;-60
2022/11/01 09:41:25;;;;;;;4.13;1.00;;;;;;;17.93;34.85;101227.94;4901960;29;20045;-64
2022/11/01 09:43:54;;;;;;;3.90;1.30;;;;;;;17.99;35.55;101230.00;4911612;29;20075;-64
2022/11/01 09:46:26;;;;;;;3.38;0.98;;;;;;;18.10;35.00;101217.69;4911933;29;20048;-62
2022/11/01 09:48:55;;;;;;;4.28;1.02;;;;;;;18.19;35.06;101224.09;4900020;29;20502;-64
2022/11/01 09:51:24;;;;;;;4.35;0.90;;;;;;;18.27;34.83;101222.19;4906240;28;20080;-63
2022/11/01 09:53:55;;;;;;;4.10;1.10;;;;;;;18.35;34.81;101233.25;4907044;29;20059;-61
2022/11/01 09:56:28;;;;;;;4.63;1.02;;;;;;;18.43;34.22;101232.38;4907557;29;20055;-64
2022/11/01 09:59:05;;;;;;;2.63;0.80;;;;;;;18.50;33.92;101236.19;4908059;29;20387;-63
2022/11/01 10:01:45;;;;;;;3.25;1.10;;;;;;;18.57;33.33;101228.00;4910967;29;20067;-64
2022/11/01 10:04:48;;;;;;;3.75;1.20;;;;;;;18.60;33.83;101234.09;4911924;29;20525;-63
2022/11/01 10:07:22;;;;;;;3.75;1.13;;;;;;;18.65;34.00;101233.53;4893209;29;20130;-64
2022/11/01 10:09:59;;;;;;;4.38;0.98;;;;;;;18.73;33.42;101237.16;4907598;29;20079;-64
2022/11/01 10:12:40;;;;;;;3.60;1.17;;;;;;;18.79;32.95;101235.59;4905765;29;20047;-63
2022/11/01 10:15:26;;;;;;;3.42;0.80;;;;;;;18.83;32.58;101236.94;4907652;29;20048;-64
2022/11/01 10:17:55;;;;;;;3.85;0.80;;;;;;;18.86;33.33;101242.16;4909150;29;20095;-64
2022/11/01 10:20:28;;;;;;;3.50;0.93;;;;;;;18.91;33.52;101239.69;4909136;29;20062;-60
2022/11/01 10:22:56;;;;;;;;;;;;;;;18.63;33.92;101244.81;4904691;29;20087;-62
2022/11/01 10:25:27;;;;;;;4.07;0.90;;;;;;;18.92;33.62;101244.19;4910836;29;19923;-63
2022/11/01 10:28:04;;;;;;;3.40;0.80;;;;;;;19.00;32.17;101240.50;4906815;29;20052;-70
2022/11/01 10:30:37;;;;;;;3.22;1.20;;;;;;;18.99;32.09;101242.41;4907977;29;20044;-72
2022/11/01 10:33:21;;;;;;;3.17;1.10;;;;;;;19.01;31.50;101236.69;4908705;29;20056;-71
2022/11/01 10:35:56;;;;;;;2.95;0.85;;;;;;;19.00;31.94;101244.16;4905851;29;20044;-71
2022/11/01 10:38:34;;;;;;;2.95;1.05;;;;;;;19.00;31.27;101248.84;4910018;28;20040;-72
2022/11/01 10:41:26;;;;;;;2.78;1.00;;;;;;;18.98;31.89;101245.38;4910495;29;20043;-71
2022/11/01 10:44:00;;;;;;;3.78;1.00;;;;;;;18.98;31.42;101253.69;4903361;29;20036;-71
2022/11/01 10:46:34;;;;;;;5.20;1.05;;;;;;;19.00;31.81;101251.59;4909664;29;20143;-72
2022/11/01 10:49:06;;;;;;;2.72;1.17;;;;;;;19.01;31.50;101256.13;4909389;29;20514;-72
2022/11/01 10:51:35;;;;;;;3.10;1.23;;;;;;;19.00;31.72;101263.56;4910236;28;20525;-71
2022/11/01 10:54:09;;;;;;;4.15;1.13;;;;;;;19.02;31.85;101249.53;4908633;29;20051;-71
2022/11/01 10:56:44;;;;;;;4.15;1.13;;;;;;;19.02;31.04;101255.94;4907848;29;20048;-71
2022/11/01 10:59:19;;;;;;;4.03;1.35;;;;;;;19.02;30.80;101255.94;4907421;29;20048;-71
2022/11/01 11:01:49;;;;;;;4.65;1.08;;;;;;;19.02;31.50;101243.97;4905362;29;20052;-71
2022/11/01 11:04:21;;;;;;;3.47;0.95;;;;;;;19.03;30.63;101257.66;4909140;29;20550;-70
2022/11/01 11:06:49;;;;;;;5.97;1.10;;;;;;;18.98;31.46;101251.78;4903599;28;20051;-70
2022/11/01 11:09:25;;;;;;;5.47;1.30;;;;;;;19.04;30.82;101245.53;4909888;29;20754;-71
2022/11/01 11:11:57;;;;;;;3.53;1.30;;;;;;;19.03;30.92;101243.81;4906733;29;20095;-71
2022/11/01 11:14:30;;;;;;;3.13;1.13;;;;;;;19.01;30.59;101253.34;4907041;29;20048;-71
2022/11/01 11:17:00;;;;;;;4.40;1.25;;;;;;;19.00;31.13;101244.16;4909915;29;20183;-71
2022/11/01 11:19:33;;;;;;;4.82;1.50;;;;;;;19.02;30.26;101250.38;4905576;29;20048;-71
2022/11/01 11:22:05;;;;;;;4.68;1.15;;;;;;;19.01;30.69;101264.44;4902076;29;20048;-71
2022/11/01 11:24:35;;;;;;;4.88;1.25;;;;;;;18.97;31.02;101260.28;4909969;29;20040;-72
2022/11/01 11:27:12;;;;;;;4.13;1.50;;;;;;;18.99;30.55;101247.09;4903370;29;20566;-71
2022/11/01 11:29:47;;;;;;;3.70;1.08;;;;;;;18.97;30.04;101250.06;4905406;29;20104;-71
2022/11/01 11:32:18;;;;;;;3.88;1.10;;;;;;;18.97;30.33;101243.63;4905066;29;20048;-71
2022/11/01 11:34:54;;;;;;;3.92;1.25;;;;;;;18.96;29.95;101253.91;4910958;29;20663;-71
2022/11/01 11:37:25;;;;;;;6.22;1.40;;;;;;;18.95;30.43;101259.63;4898311;29;20127;-71
2022/11/01 11:40:18;;;;;;;5.38;1.55;;;;;;;18.97;29.94;101258.38;4903090;29;20059;-72
2022/11/01 11:42:48;;;;;;;3.55;1.10;;;;;;;18.92;30.73;101246.09;4905408;29;20052;-71
2022/11/01 11:45:27;;;;;;;3.42;0.90;;;;;;;18.95;30.09;101259.63;4905833;29;20045;-72
2022/11/01 11:47:56;;;;;;;4.60;1.10;;;;;;;18.93;30.63;101248.69;4903358;29;20048;-72
2022/11/01 11:50:31;;;;;;;4.68;1.17;;;;;;;18.95;30.21;101254.94;4903942;29;20100;-72
2022/11/01 11:53:08;;;;;;;2.83;0.98;;;;;;;18.96;30.31;101261.34;4904352;28;20506;-74
2022/11/01 11:55:42;;;;;;;4.18;0.93;;;;;;;18.96;30.20;101266.91;4907317;29;20111;-73